sensor_id;sensor_type;location;lat;lon;timestamp;pressure;altitude;pressure_sealevel;temperature;humidity
56671;BME280;42545;50.054;8.306;2023-09-30T00:01:42;100794.19;;;15.75;93.55
56671;BME280;42545;50.054;8.306;2023-09-30T00:04:09;100796.81;;;15.74;93.28
56671;BME280;42545;50.054;8.306;2023-09-30T00:06:36;100799.44;;;15.72;93.20
56671;BME280;42545;50.054;8.306;2023-09-30T00:09:04;100804.75;;;15.71;93.33
56671;BME280;42545;50.054;8.306;2023-09-30T00:11:30;100805.63;;;15.71;93.70
56671;BME280;42545;50.054;8.306;2023-09-30T00:13:57;100806.53;;;15.72;93.77
56671;BME280;42545;50.054;8.306;2023-09-30T00:16:24;100808.28;;;15.71;93.38
56671;BME280;42545;50.054;8.306;2023-09-30T00:19:00;100808.28;;;15.71;93.35
56671;BME280;42545;50.054;8.306;2023-09-30T00:21:28;100812.72;;;15.71;93.88
56671;BME280;42545;50.054;8.306;2023-09-30T00:23:55;100810.03;;;15.69;93.61
56671;BME280;42545;50.054;8.306;2023-09-30T00:26:23;100819.81;;;15.69;93.93
56671;BME280;42545;50.054;8.306;2023-09-30T00:28:50;100818.03;;;15.66;93.25
56671;BME280;42545;50.054;8.306;2023-09-30T00:31:16;100819.78;;;15.66;93.50
56671;BME280;42545;50.054;8.306;2023-09-30T00:33:43;100824.22;;;15.65;93.66
56671;BME280;42545;50.054;8.306;2023-09-30T00:36:10;100815.28;;;15.57;93.58
56671;BME280;42545;50.054;8.306;2023-09-30T00:38:37;100824.22;;;15.67;93.24
56671;BME280;42545;50.054;8.306;2023-09-30T00:41:04;100823.34;;;15.66;93.57
56671;BME280;42545;50.054;8.306;2023-09-30T00:43:32;100820.69;;;15.66;93.64
56671;BME280;42545;50.054;8.306;2023-09-30T00:46:02;100827.78;;;15.67;93.59
56671;BME280;42545;50.054;8.306;2023-09-30T00:48:32;100834.88;;;15.67;93.74
56671;BME280;42545;50.054;8.306;2023-09-30T00:51:00;100835.75;;;15.66;93.79
56671;BME280;42545;50.054;8.306;2023-09-30T00:53:27;100830.41;;;15.64;93.72
56671;BME280;42545;50.054;8.306;2023-09-30T00:55:55;100827.75;;;15.63;94.25
56671;BME280;42545;50.054;8.306;2023-09-30T00:58:23;100834.81;;;15.62;94.51
56671;BME280;42545;50.054;8.306;2023-09-30T01:00:54;100835.72;;;15.61;95.10
56671;BME280;42545;50.054;8.306;2023-09-30T01:03:22;100839.22;;;15.58;95.00
56671;BME280;42545;50.054;8.306;2023-09-30T01:05:49;100833.91;;;15.55;94.60
56671;BME280;42545;50.054;8.306;2023-09-30T01:08:16;100837.41;;;15.53;94.25
56671;BME280;42545;50.054;8.306;2023-09-30T01:10:43;100848.03;;;15.53;94.03
56671;BME280;42545;50.054;8.306;2023-09-30T01:13:10;100847.16;;;15.51;93.66
56671;BME280;42545;50.054;8.306;2023-09-30T01:15:36;100843.59;;;15.49;93.56
56671;BME280;42545;50.054;8.306;2023-09-30T01:18:05;100842.69;;;15.48;93.61
56671;BME280;42545;50.054;8.306;2023-09-30T01:20:32;100845.31;;;15.44;91.88
56671;BME280;42545;50.054;8.306;2023-09-30T01:23:02;100848.81;;;15.40;91.94
56671;BME280;42545;50.054;8.306;2023-09-30T01:25:28;100856.75;;;15.36;91.54
56671;BME280;42545;50.054;8.306;2023-09-30T01:27:55;100863.84;;;15.34;91.75
56671;BME280;42545;50.054;8.306;2023-09-30T01:30:22;100859.38;;;15.30;90.99
56671;BME280;42545;50.054;8.306;2023-09-30T01:32:49;100858.44;;;15.27;90.42
56671;BME280;42545;50.054;8.306;2023-09-30T01:35:15;100854.00;;;15.24;90.48
56671;BME280;42545;50.054;8.306;2023-09-30T01:37:42;100855.72;;;15.22;90.54
56671;BME280;42545;50.054;8.306;2023-09-30T01:40:10;100853.09;;;15.21;90.51
56671;BME280;42545;50.054;8.306;2023-09-30T01:42:37;100850.41;;;15.19;90.77
56671;BME280;42545;50.054;8.306;2023-09-30T01:45:05;100850.34;;;15.16;90.57
56671;BME280;42545;50.054;8.306;2023-09-30T01:47:31;100852.06;;;15.11;89.79
56671;BME280;42545;50.054;8.306;2023-09-30T01:49:59;100851.16;;;15.07;89.60
56671;BME280;42545;50.054;8.306;2023-09-30T01:52:25;100849.31;;;15.02;89.60
56671;BME280;42545;50.054;8.306;2023-09-30T01:54:52;100843.06;;;14.98;89.88
56671;BME280;42545;50.054;8.306;2023-09-30T01:57:20;100839.47;;;14.93;90.23
56671;BME280;42545;50.054;8.306;2023-09-30T01:59:47;100830.53;;;14.85;90.75
56671;BME280;42545;50.054;8.306;2023-09-30T02:02:13;100831.41;;;14.84;91.04
56671;BME280;42545;50.054;8.306;2023-09-30T02:04:41;100841.91;;;14.74;91.19
56671;BME280;42545;50.054;8.306;2023-09-30T02:07:07;100852.47;;;14.67;91.65
56671;BME280;42545;50.054;8.306;2023-09-30T02:09:34;100853.22;;;14.58;92.36
56671;BME280;42545;50.054;8.306;2023-09-30T02:12:01;100860.22;;;14.51;92.92
56671;BME280;42545;50.054;8.306;2023-09-30T02:14:29;100862.75;;;14.45;93.19
56671;BME280;42545;50.054;8.306;2023-09-30T02:16:56;100870.69;;;14.40;93.29
56671;BME280;42545;50.054;8.306;2023-09-30T02:19:22;100867.94;;;14.36;93.58
56671;BME280;42545;50.054;8.306;2023-09-30T02:21:49;100869.66;;;14.31;93.99
56671;BME280;42545;50.054;8.306;2023-09-30T02:24:15;100857.16;;;14.22;94.29
56671;BME280;42545;50.054;8.306;2023-09-30T02:26:42;100866.06;;;14.26;94.79
56671;BME280;42545;50.054;8.306;2023-09-30T02:29:08;100864.22;;;14.23;95.26
56671;BME280;42545;50.054;8.306;2023-09-30T02:31:36;100868.66;;;14.22;95.61
56671;BME280;42545;50.054;8.306;2023-09-30T02:34:03;100866.84;;;14.21;95.95
56671;BME280;42545;50.054;8.306;2023-09-30T02:36:30;100865.91;;;14.16;95.61
56671;BME280;42545;50.054;8.306;2023-09-30T02:38:56;100866.69;;;14.11;95.88
56671;BME280;42545;50.054;8.306;2023-09-30T02:41:23;100864.81;;;14.03;95.55
56671;BME280;42545;50.054;8.306;2023-09-30T02:43:49;100874.50;;;13.98;95.98
56671;BME280;42545;50.054;8.306;2023-09-30T02:46:16;100888.53;;;13.91;95.86
56671;BME280;42545;50.054;8.306;2023-09-30T02:48:44;100895.53;;;13.86;96.13
56671;BME280;42545;50.054;8.306;2023-09-30T02:51:11;100903.38;;;13.81;96.63
56671;BME280;42545;50.054;8.306;2023-09-30T02:53:38;100884.63;;;13.71;97.06
56671;BME280;42545;50.054;8.306;2023-09-30T02:56:04;100892.59;;;13.71;97.57
56671;BME280;42545;50.054;8.306;2023-09-30T02:58:32;100897.97;;;13.74;97.70
56671;BME280;42545;50.054;8.306;2023-09-30T03:00:59;100900.53;;;13.68;97.65
56671;BME280;42545;50.054;8.306;2023-09-30T03:03:25;100878.13;;;13.52;97.73
56671;BME280;42545;50.054;8.306;2023-09-30T03:05:54;100894.03;;;13.52;98.00
56671;BME280;42545;50.054;8.306;2023-09-30T03:08:20;100898.34;;;13.43;97.75
56671;BME280;42545;50.054;8.306;2023-09-30T03:10:49;100881.41;;;13.37;98.58
56671;BME280;42545;50.054;8.306;2023-09-30T03:13:15;100880.31;;;13.28;98.59
56671;BME280;42545;50.054;8.306;2023-09-30T03:15:43;100882.88;;;13.22;99.05
56671;BME280;42545;50.054;8.306;2023-09-30T03:18:10;100896.03;;;13.16;99.35
56671;BME280;42545;50.054;8.306;2023-09-30T03:20:39;100906.47;;;13.10;99.58
56671;BME280;42545;50.054;8.306;2023-09-30T03:23:07;100901.97;;;13.04;99.57
56671;BME280;42545;50.054;8.306;2023-09-30T03:25:34;100900.09;;;12.99;100.00
56671;BME280;42545;50.054;8.306;2023-09-30T03:28:00;100917.59;;;12.92;100.00
56671;BME280;42545;50.054;8.306;2023-09-30T03:30:27;100927.22;;;12.88;100.00
56671;BME280;42545;50.054;8.306;2023-09-30T03:32:54;100924.59;;;12.87;100.00
56671;BME280;42545;50.054;8.306;2023-09-30T03:35:21;100905.09;;;12.83;100.00
56671;BME280;42545;50.054;8.306;2023-09-30T03:37:49;100896.22;;;12.83;100.00
56671;BME280;42545;50.054;8.306;2023-09-30T03:40:17;100898.75;;;12.77;100.00
56671;BME280;42545;50.054;8.306;2023-09-30T03:42:45;100920.78;;;12.74;100.00
56671;BME280;42545;50.054;8.306;2023-09-30T03:45:14;100927.72;;;12.69;100.00
56671;BME280;42545;50.054;8.306;2023-09-30T03:47:43;100933.06;;;12.71;100.00
56671;BME280;42545;50.054;8.306;2023-09-30T03:50:11;100926.84;;;12.70;100.00
56671;BME280;42545;50.054;8.306;2023-09-30T03:52:40;100930.38;;;12.69;100.00
56671;BME280;42545;50.054;8.306;2023-09-30T03:55:09;100933.81;;;12.66;100.00
56671;BME280;42545;50.054;8.306;2023-09-30T03:57:38;100924.97;;;12.64;100.00
56671;BME280;42545;50.054;8.306;2023-09-30T04:00:06;100909.75;;;12.56;100.00
56671;BME280;42545;50.054;8.306;2023-09-30T04:02:36;100924.03;;;12.62;100.00
56671;BME280;42545;50.054;8.306;2023-09-30T04:05:03;100924.88;;;12.60;100.00
56671;BME280;42545;50.054;8.306;2023-09-30T04:07:30;100932.81;;;12.60;100.00
56671;BME280;42545;50.054;8.306;2023-09-30T04:09:58;100932.81;;;12.60;100.00
56671;BME280;42545;50.054;8.306;2023-09-30T04:12:26;100923.03;;;12.57;100.00
56671;BME280;42545;50.054;8.306;2023-09-30T04:14:55;100927.31;;;12.52;100.00
56671;BME280;42545;50.054;8.306;2023-09-30T04:17:22;100921.06;;;12.47;100.00
56671;BME280;42545;50.054;8.306;2023-09-30T04:19:49;100904.84;;;12.33;100.00
56671;BME280;42545;50.054;8.306;2023-09-30T04:22:17;100928.94;;;12.44;100.00
56671;BME280;42545;50.054;8.306;2023-09-30T04:24:44;100941.28;;;12.43;100.00
56671;BME280;42545;50.054;8.306;2023-09-30T04:27:10;100943.00;;;12.41;100.00
56671;BME280;42545;50.054;8.306;2023-09-30T04:29:37;100936.88;;;12.44;100.00
56671;BME280;42545;50.054;8.306;2023-09-30T04:32:05;100935.19;;;12.47;100.00
56671;BME280;42545;50.054;8.306;2023-09-30T04:34:32;100929.94;;;12.49;100.00
56671;BME280;42545;50.054;8.306;2023-09-30T04:36:59;100934.38;;;12.52;100.00
56671;BME280;42545;50.054;8.306;2023-09-30T04:39:25;100937.13;;;12.55;100.00
56671;BME280;42545;50.054;8.306;2023-09-30T04:41:52;100918.63;;;12.56;100.00
56671;BME280;42545;50.054;8.306;2023-09-30T04:44:20;100923.16;;;12.62;100.00
56671;BME280;42545;50.054;8.306;2023-09-30T04:46:46;100923.25;;;12.66;100.00
56671;BME280;42545;50.054;8.306;2023-09-30T04:49:15;100925.91;;;12.68;100.00
56671;BME280;42545;50.054;8.306;2023-09-30T04:51:42;100931.19;;;12.66;100.00
56671;BME280;42545;50.054;8.306;2023-09-30T04:54:09;100925.72;;;12.59;100.00
56671;BME280;42545;50.054;8.306;2023-09-30T04:56:36;100929.34;;;12.62;100.00
56671;BME280;42545;50.054;8.306;2023-09-30T04:59:05;100933.66;;;12.59;100.00
56671;BME280;42545;50.054;8.306;2023-09-30T05:01:32;100945.97;;;12.57;100.00
56671;BME280;42545;50.054;8.306;2023-09-30T05:03:58;100941.53;;;12.54;100.00
56671;BME280;42545;50.054;8.306;2023-09-30T05:06:26;100945.00;;;12.53;100.00
56671;BME280;42545;50.054;8.306;2023-09-30T05:08:53;100946.75;;;12.51;100.00
56671;BME280;42545;50.054;8.306;2023-09-30T05:11:20;100951.91;;;12.46;100.00
56671;BME280;42545;50.054;8.306;2023-09-30T05:13:47;100950.03;;;12.41;100.00
56671;BME280;42545;50.054;8.306;2023-09-30T05:16:13;100951.69;;;12.37;100.00
56671;BME280;42545;50.054;8.306;2023-09-30T05:18:41;100954.13;;;12.28;100.00
56671;BME280;42545;50.054;8.306;2023-09-30T05:21:08;100940.75;;;12.22;100.00
56671;BME280;42545;50.054;8.306;2023-09-30T05:23:36;100942.34;;;12.15;100.00
56671;BME280;42545;50.054;8.306;2023-09-30T05:26:03;100945.75;;;12.09;100.00
56671;BME280;42545;50.054;8.306;2023-09-30T05:28:30;100951.88;;;12.07;100.00
56671;BME280;42545;50.054;8.306;2023-09-30T05:30:56;100946.53;;;12.05;100.00
56671;BME280;42545;50.054;8.306;2023-09-30T05:33:23;100943.81;;;12.02;100.00
56671;BME280;42545;50.054;8.306;2023-09-30T05:35:50;100939.28;;;11.97;100.00
56671;BME280;42545;50.054;8.306;2023-09-30T05:38:17;100949.75;;;11.93;100.00
56671;BME280;42545;50.054;8.306;2023-09-30T05:40:47;100949.81;;;11.95;100.00
56671;BME280;42545;50.054;8.306;2023-09-30T05:43:14;100952.41;;;11.93;100.00
56671;BME280;42545;50.054;8.306;2023-09-30T05:45:41;100957.69;;;11.93;100.00
56671;BME280;42545;50.054;8.306;2023-09-30T05:48:14;100953.31;;;11.94;100.00
56671;BME280;42545;50.054;8.306;2023-09-30T05:50:41;100960.34;;;11.93;100.00
56671;BME280;42545;50.054;8.306;2023-09-30T05:53:08;100962.06;;;11.91;100.00
56671;BME280;42545;50.054;8.306;2023-09-30T05:55:36;100972.69;;;11.93;100.00
56671;BME280;42545;50.054;8.306;2023-09-30T05:58:05;100960.13;;;11.86;100.00
56671;BME280;42545;50.054;8.306;2023-09-30T06:00:31;100963.84;;;11.92;100.00
56671;BME280;42545;50.054;8.306;2023-09-30T06:03:00;100962.06;;;11.91;100.00
56671;BME280;42545;50.054;8.306;2023-09-30T06:05:29;100970.91;;;11.92;100.00
56671;BME280;42545;50.054;8.306;2023-09-30T06:07:57;100967.06;;;11.82;100.00
56671;BME280;42545;50.054;8.306;2023-09-30T06:10:23;100976.88;;;11.86;100.00
56671;BME280;42545;50.054;8.306;2023-09-30T06:12:52;100988.41;;;11.88;100.00
56671;BME280;42545;50.054;8.306;2023-09-30T06:15:22;100984.91;;;11.89;100.00
56671;BME280;42545;50.054;8.306;2023-09-30T06:17:51;101001.63;;;11.88;100.00
56671;BME280;42545;50.054;8.306;2023-09-30T06:20:18;101006.00;;;11.88;100.00
56671;BME280;42545;50.054;8.306;2023-09-30T06:22:47;100998.06;;;11.88;100.00
56671;BME280;42545;50.054;8.306;2023-09-30T06:25:15;101005.16;;;11.89;100.00
56671;BME280;42545;50.054;8.306;2023-09-30T06:27:42;100998.19;;;11.91;100.00
56671;BME280;42545;50.054;8.306;2023-09-30T06:30:10;101001.72;;;11.91;100.00
56671;BME280;42545;50.054;8.306;2023-09-30T06:32:38;100997.22;;;11.89;100.00
56671;BME280;42545;50.054;8.306;2023-09-30T06:35:06;101005.28;;;11.92;100.00
56671;BME280;42545;50.054;8.306;2023-09-30T06:37:35;100993.88;;;11.95;100.00
56671;BME280;42545;50.054;8.306;2023-09-30T06:40:03;100991.28;;;11.96;100.00
56671;BME280;42545;50.054;8.306;2023-09-30T06:42:29;100980.84;;;12.02;100.00
56671;BME280;42545;50.054;8.306;2023-09-30T06:44:56;100977.41;;;12.06;100.00
56671;BME280;42545;50.054;8.306;2023-09-30T06:47:22;100977.53;;;12.11;100.00
56671;BME280;42545;50.054;8.306;2023-09-30T06:49:50;100994.47;;;12.18;100.00
56671;BME280;42545;50.054;8.306;2023-09-30T06:52:17;100987.56;;;12.24;100.00
56671;BME280;42545;50.054;8.306;2023-09-30T06:54:45;100999.16;;;12.29;100.00
56671;BME280;42545;50.054;8.306;2023-09-30T06:57:11;101004.59;;;12.36;100.00
56671;BME280;42545;50.054;8.306;2023-09-30T06:59:38;101010.06;;;12.42;100.00
56671;BME280;42545;50.054;8.306;2023-09-30T07:02:05;101025.16;;;12.46;100.00
56671;BME280;42545;50.054;8.306;2023-09-30T07:04:31;101020.78;;;12.48;100.00
56671;BME280;42545;50.054;8.306;2023-09-30T07:06:59;101020.94;;;12.54;100.00
56671;BME280;42545;50.054;8.306;2023-09-30T07:09:25;101018.56;;;12.65;100.00
56671;BME280;42545;50.054;8.306;2023-09-30T07:11:52;101024.91;;;12.73;100.00
56671;BME280;42545;50.054;8.306;2023-09-30T07:14:19;101018.84;;;12.79;100.00
56671;BME280;42545;50.054;8.306;2023-09-30T07:16:46;101009.34;;;12.87;100.00
56671;BME280;42545;50.054;8.306;2023-09-30T07:19:12;100981.91;;;12.85;100.00
56671;BME280;42545;50.054;8.306;2023-09-30T07:21:39;101003.41;;;12.99;100.00
56671;BME280;42545;50.054;8.306;2023-09-30T07:24:07;101015.91;;;13.06;100.00
56671;BME280;42545;50.054;8.306;2023-09-30T07:26:35;101008.09;;;13.12;100.00
56671;BME280;42545;50.054;8.306;2023-09-30T07:29:01;101015.28;;;13.16;100.00
56671;BME280;42545;50.054;8.306;2023-09-30T07:31:33;101025.16;;;13.25;100.00
56671;BME280;42545;50.054;8.306;2023-09-30T07:34:00;101026.28;;;13.35;100.00
56671;BME280;42545;50.054;8.306;2023-09-30T07:36:26;101026.41;;;13.41;100.00
56671;BME280;42545;50.054;8.306;2023-09-30T07:38:53;101023.00;;;13.48;100.00
56671;BME280;42545;50.054;8.306;2023-09-30T07:41:21;101011.66;;;13.55;100.00
56671;BME280;42545;50.054;8.306;2023-09-30T07:43:47;100992.22;;;13.55;100.00
56671;BME280;42545;50.054;8.306;2023-09-30T07:46:14;101007.44;;;13.67;100.00
56671;BME280;42545;50.054;8.306;2023-09-30T07:48:41;101003.16;;;13.73;99.99
56671;BME280;42545;50.054;8.306;2023-09-30T07:51:08;101011.31;;;13.84;99.51
56671;BME280;42545;50.054;8.306;2023-09-30T07:53:38;101013.19;;;13.90;99.37
56671;BME280;42545;50.054;8.306;2023-09-30T07:56:05;101022.19;;;13.99;98.42
56671;BME280;42545;50.054;8.306;2023-09-30T07:58:33;101017.91;;;14.06;97.41
56671;BME280;42545;50.054;8.306;2023-09-30T08:00:59;101020.63;;;14.09;96.15
56671;BME280;42545;50.054;8.306;2023-09-30T08:03:26;101011.84;;;14.13;95.26
56671;BME280;42545;50.054;8.306;2023-09-30T08:05:53;101005.72;;;14.17;94.71
56671;BME280;42545;50.054;8.306;2023-09-30T08:08:19;101013.66;;;14.16;91.99
56671;BME280;42545;50.054;8.306;2023-09-30T08:10:47;101009.25;;;14.18;92.04
56671;BME280;42545;50.054;8.306;2023-09-30T08:13:13;101009.31;;;14.21;92.38
56671;BME280;42545;50.054;8.306;2023-09-30T08:15:42;101020.84;;;14.23;90.29
56671;BME280;42545;50.054;8.306;2023-09-30T08:18:08;101024.44;;;14.27;89.19
56671;BME280;42545;50.054;8.306;2023-09-30T08:20:35;101029.88;;;14.34;88.71
56671;BME280;42545;50.054;8.306;2023-09-30T08:23:02;101010.34;;;14.31;88.29
56671;BME280;42545;50.054;8.306;2023-09-30T08:25:29;101022.22;;;14.54;88.60
56671;BME280;42545;50.054;8.306;2023-09-30T08:27:55;101023.38;;;14.69;87.39
56671;BME280;42545;50.054;8.306;2023-09-30T08:30:22;101021.66;;;14.72;85.44
56671;BME280;42545;50.054;8.306;2023-09-30T08:32:50;101021.84;;;14.85;86.77
56671;BME280;42545;50.054;8.306;2023-09-30T08:35:16;101040.63;;;14.98;86.32
56671;BME280;42545;50.054;8.306;2023-09-30T08:37:43;101050.50;;;15.07;86.79
56671;BME280;42545;50.054;8.306;2023-09-30T08:40:11;101042.63;;;15.13;86.75
56671;BME280;42545;50.054;8.306;2023-09-30T08:42:38;101041.75;;;15.16;85.57
56671;BME280;42545;50.054;8.306;2023-09-30T08:45:08;101039.09;;;15.16;84.82
56671;BME280;42545;50.054;8.306;2023-09-30T08:47:36;101054.19;;;15.18;84.27
56671;BME280;42545;50.054;8.306;2023-09-30T08:50:06;101046.22;;;15.17;83.93
56671;BME280;42545;50.054;8.306;2023-09-30T08:52:35;101066.78;;;15.30;83.59
56671;BME280;42545;50.054;8.306;2023-09-30T08:55:04;101057.09;;;15.38;82.33
56671;BME280;42545;50.054;8.306;2023-09-30T08:57:31;101048.31;;;15.43;81.02
56671;BME280;42545;50.054;8.306;2023-09-30T08:59:59;101058.97;;;15.46;81.74
56671;BME280;42545;50.054;8.306;2023-09-30T09:02:26;101064.38;;;15.52;80.48
56671;BME280;42545;50.054;8.306;2023-09-30T09:04:52;101059.09;;;15.55;81.00
56671;BME280;42545;50.054;8.306;2023-09-30T09:07:20;101057.38;;;15.57;81.50
56671;BME280;42545;50.054;8.306;2023-09-30T09:10:04;101060.97;;;15.64;80.77
56671;BME280;42545;50.054;8.306;2023-09-30T09:12:33;101057.47;;;15.68;80.05
56671;BME280;42545;50.054;8.306;2023-09-30T09:15:00;101064.59;;;15.70;79.63
56671;BME280;42545;50.054;8.306;2023-09-30T09:17:40;101062.94;;;15.77;80.46
56671;BME280;42545;50.054;8.306;2023-09-30T09:20:08;101064.84;;;15.90;79.08
56671;BME280;42545;50.054;8.306;2023-09-30T09:22:41;101062.34;;;16.03;78.05
56671;BME280;42545;50.054;8.306;2023-09-30T09:25:09;101064.16;;;16.08;78.12
56671;BME280;42545;50.054;8.306;2023-09-30T09:27:35;101070.41;;;16.13;76.91
56671;BME280;42545;50.054;8.306;2023-09-30T09:30:19;101073.13;;;16.20;76.88
56671;BME280;42545;50.054;8.306;2023-09-30T09:32:59;101072.34;;;16.28;76.77
56671;BME280;42545;50.054;8.306;2023-09-30T09:35:27;101071.53;;;16.39;76.81
56671;BME280;42545;50.054;8.306;2023-09-30T09:37:58;101055.50;;;16.32;76.07
56671;BME280;42545;50.054;8.306;2023-09-30T09:40:26;101064.47;;;16.42;76.57
56671;BME280;42545;50.054;8.306;2023-09-30T09:42:54;101062.72;;;16.46;75.62
56671;BME280;42545;50.054;8.306;2023-09-30T09:45:21;101062.69;;;16.44;76.15
56671;BME280;42545;50.054;8.306;2023-09-30T09:47:49;101062.72;;;16.46;76.75
56671;BME280;42545;50.054;8.306;2023-09-30T09:50:17;101061.84;;;16.50;75.30
56671;BME280;42545;50.054;8.306;2023-09-30T09:52:46;101046.72;;;16.46;76.26
56671;BME280;42545;50.054;8.306;2023-09-30T09:55:15;101049.50;;;16.58;75.95
56671;BME280;42545;50.054;8.306;2023-09-30T09:57:43;101047.84;;;16.74;75.89
56671;BME280;42545;50.054;8.306;2023-09-30T10:00:11;101039.88;;;16.80;74.12
56671;BME280;42545;50.054;8.306;2023-09-30T10:02:40;101036.44;;;16.90;73.68
56671;BME280;42545;50.054;8.306;2023-09-30T10:05:07;101025.78;;;16.90;70.98
56671;BME280;42545;50.054;8.306;2023-09-30T10:07:39;101029.31;;;16.89;72.20
56671;BME280;42545;50.054;8.306;2023-09-30T10:10:10;101018.66;;;16.89;70.47
56671;BME280;42545;50.054;8.306;2023-09-30T10:12:40;101014.25;;;16.99;71.99
56671;BME280;42545;50.054;8.306;2023-09-30T10:15:34;101012.63;;;17.27;71.32
56671;BME280;42545;50.054;8.306;2023-09-30T10:18:03;101015.34;;;17.46;71.22
56671;BME280;42545;50.054;8.306;2023-09-30T10:20:32;101012.72;;;17.57;71.57
56671;BME280;42545;50.054;8.306;2023-09-30T10:23:19;101013.63;;;17.65;69.88
56671;BME280;42545;50.054;8.306;2023-09-30T10:25:46;101002.09;;;17.69;68.94
56671;BME280;42545;50.054;8.306;2023-09-30T10:28:35;101007.44;;;17.78;68.15
56671;BME280;42545;50.054;8.306;2023-09-30T10:31:09;101005.63;;;17.76;68.30
56671;BME280;42545;50.054;8.306;2023-09-30T10:34:20;101014.63;;;17.87;68.76
56671;BME280;42545;50.054;8.306;2023-09-30T10:36:47;101013.72;;;17.93;67.98
56671;BME280;42545;50.054;8.306;2023-09-30T10:39:54;101011.03;;;17.88;65.53
56671;BME280;42545;50.054;8.306;2023-09-30T10:42:44;101005.66;;;17.80;65.33
56671;BME280;42545;50.054;8.306;2023-09-30T10:45:43;101007.44;;;17.80;67.03
56671;BME280;42545;50.054;8.306;2023-09-30T10:48:33;101007.44;;;17.80;66.14
56671;BME280;42545;50.054;8.306;2023-09-30T10:51:00;100998.59;;;17.96;67.95
56671;BME280;42545;50.054;8.306;2023-09-30T10:53:28;101005.75;;;18.11;67.19
56671;BME280;42545;50.054;8.306;2023-09-30T10:55:57;101008.41;;;18.19;64.48
56671;BME280;42545;50.054;8.306;2023-09-30T10:58:39;101004.84;;;18.23;65.30
56671;BME280;42545;50.054;8.306;2023-09-30T11:01:07;101004.84;;;18.23;64.82
56671;BME280;42545;50.054;8.306;2023-09-30T11:03:34;101007.53;;;18.28;64.29
56671;BME280;42545;50.054;8.306;2023-09-30T11:06:01;101007.53;;;18.28;64.00
56671;BME280;42545;50.054;8.306;2023-09-30T11:08:29;101007.53;;;18.28;64.20
56671;BME280;42545;50.054;8.306;2023-09-30T11:10:56;101013.75;;;18.25;64.12
56671;BME280;42545;50.054;8.306;2023-09-30T11:13:22;101012.88;;;18.20;64.29
56671;BME280;42545;50.054;8.306;2023-09-30T11:16:00;101008.38;;;18.14;64.41
56671;BME280;42545;50.054;8.306;2023-09-30T11:18:29;101005.72;;;18.10;64.68
56671;BME280;42545;50.054;8.306;2023-09-30T11:21:08;101011.06;;;18.08;64.50
56671;BME280;42545;50.054;8.306;2023-09-30T11:23:36;101006.59;;;18.09;63.95
56671;BME280;42545;50.054;8.306;2023-09-30T11:26:03;100999.50;;;17.97;63.62
56671;BME280;42545;50.054;8.306;2023-09-30T11:28:38;101020.84;;;18.01;63.91
56671;BME280;42545;50.054;8.306;2023-09-30T11:31:08;101014.63;;;17.95;63.46
56671;BME280;42545;50.054;8.306;2023-09-30T11:33:49;101019.91;;;17.84;64.33
56671;BME280;42545;50.054;8.306;2023-09-30T11:36:18;101013.66;;;17.76;64.78
56671;BME280;42545;50.054;8.306;2023-09-30T11:38:46;101021.66;;;17.70;65.22
56671;BME280;42545;50.054;8.306;2023-09-30T11:41:14;101014.50;;;17.62;65.28
56671;BME280;42545;50.054;8.306;2023-09-30T11:43:58;101010.06;;;17.57;65.38
56671;BME280;42545;50.054;8.306;2023-09-30T11:46:26;101011.84;;;17.55;65.31
56671;BME280;42545;50.054;8.306;2023-09-30T11:48:59;101010.94;;;17.54;65.01
56671;BME280;42545;50.054;8.306;2023-09-30T11:51:26;101015.38;;;17.51;64.68
56671;BME280;42545;50.054;8.306;2023-09-30T11:53:53;101008.25;;;17.48;65.28
56671;BME280;42545;50.054;8.306;2023-09-30T11:56:20;101003.78;;;17.45;65.52
56671;BME280;42545;50.054;8.306;2023-09-30T11:58:53;101006.44;;;17.42;66.04
56671;BME280;42545;50.054;8.306;2023-09-30T12:01:19;101007.34;;;17.41;66.54
56671;BME280;42545;50.054;8.306;2023-09-30T12:03:47;101002.00;;;17.41;66.57
56671;BME280;42545;50.054;8.306;2023-09-30T12:06:15;101002.88;;;17.45;66.37
56671;BME280;42545;50.054;8.306;2023-09-30T12:08:42;100997.59;;;17.53;65.62
56671;BME280;42545;50.054;8.306;2023-09-30T12:11:08;100999.41;;;17.67;65.65
56671;BME280;42545;50.054;8.306;2023-09-30T12:13:38;100999.41;;;17.81;64.30
56671;BME280;42545;50.054;8.306;2023-09-30T12:16:04;100983.47;;;17.89;64.58
56671;BME280;42545;50.054;8.306;2023-09-30T12:18:31;100991.47;;;17.94;63.25
56671;BME280;42545;50.054;8.306;2023-09-30T12:20:58;100972.81;;;18.00;62.73
56671;BME280;42545;50.054;8.306;2023-09-30T12:23:26;100976.34;;;18.11;62.96
56671;BME280;42545;50.054;8.306;2023-09-30T12:25:52;100980.78;;;18.21;63.24
56671;BME280;42545;50.054;8.306;2023-09-30T12:28:19;100975.47;;;18.24;61.79
56671;BME280;42545;50.054;8.306;2023-09-30T12:30:46;100969.25;;;18.25;62.31
56671;BME280;42545;50.054;8.306;2023-09-30T12:33:12;100971.00;;;18.31;62.54
56671;BME280;42545;50.054;8.306;2023-09-30T12:35:39;100965.66;;;18.42;62.84
56671;BME280;42545;50.054;8.306;2023-09-30T12:38:06;100966.53;;;18.50;60.20
56671;BME280;42545;50.054;8.306;2023-09-30T12:40:33;100970.97;;;18.59;61.23
56671;BME280;42545;50.054;8.306;2023-09-30T12:43:00;100962.00;;;18.74;60.28
56671;BME280;42545;50.054;8.306;2023-09-30T12:45:27;100958.44;;;18.89;59.48
56671;BME280;42545;50.054;8.306;2023-09-30T12:47:53;100965.53;;;18.99;59.92
56671;BME280;42545;50.054;8.306;2023-09-30T12:50:21;100959.28;;;19.06;60.10
56671;BME280;42545;50.054;8.306;2023-09-30T12:52:48;100961.03;;;19.12;60.18